createdAt,value
2023-01-28T00:00:37.978Z,63.95
2023-01-28T00:03:04.582Z,63.91
2023-01-28T00:05:33.642Z,64.66
2023-01-28T00:08:00.185Z,63.76
2023-01-28T00:10:26.607Z,63.77
2023-01-28T00:12:53.145Z,64.00
2023-01-28T00:15:19.640Z,63.77
2023-01-28T00:17:46.057Z,63.76
2023-01-28T00:20:12.799Z,63.77
2023-01-28T00:22:39.216Z,64.14
2023-01-28T00:25:05.810Z,63.54
2023-01-28T00:27:32.726Z,63.85
2023-01-28T00:29:59.156Z,64.44
2023-01-28T00:32:26.088Z,63.83
2023-01-28T00:34:52.529Z,62.79
2023-01-28T00:37:19.003Z,63.43
2023-01-28T00:39:45.554Z,63.29
2023-01-28T00:42:11.991Z,63.58
2023-01-28T00:44:38.420Z,63.15
2023-01-28T00:47:04.860Z,63.30
2023-01-28T00:49:31.344Z,63.29
2023-01-28T00:51:57.892Z,62.67
2023-01-28T00:54:24.343Z,62.78
2023-01-28T00:56:53.657Z,63.63
2023-01-28T00:59:20.387Z,62.98
2023-01-28T01:01:47.090Z,62.90
2023-01-28T01:04:13.547Z,63.32
2023-01-28T01:06:41.050Z,63.28
2023-01-28T01:09:10.594Z,62.87
2023-01-28T01:11:37.233Z,63.01
2023-01-28T01:14:06.925Z,63.78
2023-01-28T01:16:35.358Z,63.61
2023-01-28T01:19:02.058Z,63.61
2023-01-28T01:21:29.807Z,62.85
2023-01-28T01:23:56.817Z,63.78
2023-01-28T01:26:23.508Z,63.79
2023-01-28T01:28:51.591Z,64.56
2023-01-28T01:31:20.721Z,64.14
2023-01-28T01:33:49.328Z,63.97
2023-01-28T01:36:17.150Z,64.34
2023-01-28T01:38:43.765Z,63.97
2023-01-28T01:41:22.252Z,63.98
2023-01-28T01:43:56.481Z,64.49
2023-01-28T01:46:43.730Z,64.95
2023-01-28T01:49:26.011Z,64.51
2023-01-28T01:51:57.593Z,65.00
2023-01-28T01:54:29.097Z,64.57
2023-01-28T01:56:55.871Z,64.75
2023-01-28T01:59:28.226Z,64.59
2023-01-28T02:01:55.365Z,64.93
2023-01-28T02:04:31.868Z,64.39
2023-01-28T02:07:00.546Z,63.93
2023-01-28T02:09:32.743Z,64.43
2023-01-28T02:12:04.227Z,63.95
2023-01-28T02:14:34.772Z,64.11
2023-01-28T02:17:02.536Z,64.25
2023-01-28T02:19:38.102Z,63.49
2023-01-28T02:22:30.994Z,63.93
2023-01-28T02:25:27.254Z,63.46
2023-01-28T02:28:05.941Z,63.36
2023-01-28T02:30:39.009Z,64.14
2023-01-28T02:33:14.246Z,63.42
2023-01-28T02:35:48.681Z,62.79
2023-01-28T02:38:22.541Z,63.33
2023-01-28T02:41:03.874Z,62.98
2023-01-28T02:43:41.859Z,62.57
2023-01-28T02:46:41.290Z,63.60
2023-01-28T02:49:16.245Z,63.94
2023-01-28T02:52:52.201Z,63.18
2023-01-28T02:55:32.576Z,63.85
2023-01-28T02:58:14.318Z,64.58
2023-01-28T03:01:09.532Z,65.35
2023-01-28T03:04:07.533Z,65.93
2023-01-28T03:06:39.683Z,65.68
2023-01-28T03:09:22.447Z,66.67
2023-01-28T03:12:12.915Z,65.89
2023-01-28T03:14:58.843Z,65.59
2023-01-28T03:17:53.746Z,65.45
2023-01-28T03:20:40.900Z,65.36
2023-01-28T03:23:33.278Z,65.00
2023-01-28T03:26:20.107Z,65.74
2023-01-28T03:29:07.919Z,65.24
2023-01-28T03:31:54.250Z,65.03
2023-01-28T03:34:40.923Z,64.78
2023-01-28T03:37:09.014Z,65.05
2023-01-28T03:39:35.907Z,65.23
2023-01-28T03:42:08.520Z,65.07
2023-01-28T03:44:51.839Z,65.62
2023-01-28T03:47:29.623Z,65.00
2023-01-28T03:49:59.735Z,64.87
2023-01-28T03:52:32.191Z,64.99
2023-01-28T03:54:58.807Z,64.24
2023-01-28T03:57:27.573Z,64.51
2023-01-28T03:59:54.232Z,64.69
2023-01-28T04:02:22.173Z,64.37
2023-01-28T04:04:50.180Z,64.60
2023-01-28T04:07:17.223Z,64.07
2023-01-28T04:09:44.590Z,64.43
2023-01-28T04:12:11.326Z,64.66
2023-01-28T04:14:39.289Z,64.62
2023-01-28T04:17:07.539Z,64.62
2023-01-28T04:19:37.304Z,64.35
2023-01-28T04:22:06.315Z,64.05
2023-01-28T04:24:33.232Z,63.89
2023-01-28T04:26:59.754Z,64.62
2023-01-28T04:29:26.261Z,64.69
2023-01-28T04:31:52.810Z,64.26
2023-01-28T04:34:20.480Z,64.05
2023-01-28T04:36:47.070Z,64.61
2023-01-28T04:39:13.577Z,63.52
2023-01-28T04:41:39.964Z,64.21
2023-01-28T04:44:06.643Z,63.71
2023-01-28T04:46:33.103Z,63.99
2023-01-28T04:48:59.740Z,63.54
2023-01-28T04:51:26.233Z,63.90
2023-01-28T04:53:52.703Z,64.09
2023-01-28T04:56:19.174Z,64.64
2023-01-28T04:58:45.587Z,63.88
2023-01-28T05:01:12.104Z,63.88
2023-01-28T05:03:38.775Z,64.40
2023-01-28T05:06:05.547Z,64.72
2023-01-28T05:08:32.116Z,64.58
2023-01-28T05:10:58.622Z,64.82
2023-01-28T05:13:25.385Z,65.00
2023-01-28T05:15:53.296Z,64.70
2023-01-28T05:18:20.234Z,64.33
2023-01-28T05:20:47.601Z,64.94
2023-01-28T05:23:14.133Z,64.59
2023-01-28T05:25:40.602Z,64.39
2023-01-28T05:28:07.096Z,64.28
2023-01-28T05:30:33.630Z,65.20
2023-01-28T05:33:00.272Z,64.68
2023-01-28T05:35:26.745Z,65.18
2023-01-28T05:37:53.206Z,65.08
2023-01-28T05:40:19.853Z,64.41
2023-01-28T05:42:46.358Z,65.04
2023-01-28T05:45:13.018Z,64.67
2023-01-28T05:47:39.773Z,65.60
2023-01-28T05:50:07.667Z,64.55
2023-01-28T05:52:34.439Z,64.40
2023-01-28T05:55:01.378Z,64.90
2023-01-28T05:57:27.810Z,65.02
2023-01-28T05:59:54.325Z,64.50
2023-01-28T06:02:20.973Z,64.61
2023-01-28T06:04:47.642Z,64.64
2023-01-28T06:07:15.671Z,64.99
2023-01-28T06:09:42.161Z,64.93
2023-01-28T06:12:08.615Z,64.87
2023-01-28T06:14:35.063Z,64.56
2023-01-28T06:17:01.572Z,64.53
2023-01-28T06:19:28.286Z,64.36
2023-01-28T06:21:54.799Z,64.79
2023-01-28T06:24:21.384Z,65.02
2023-01-28T06:26:47.989Z,64.91
2023-01-28T06:29:14.458Z,64.43
2023-01-28T06:31:40.958Z,65.10
2023-01-28T06:34:07.572Z,64.68
2023-01-28T06:36:34.008Z,63.95
2023-01-28T06:39:00.479Z,64.65
2023-01-28T06:41:27.153Z,65.30
2023-01-28T06:43:53.747Z,64.42
2023-01-28T06:46:20.426Z,65.11
2023-01-28T06:48:47.107Z,64.88
2023-01-28T06:51:13.579Z,65.32
2023-01-28T06:53:39.942Z,65.04
2023-01-28T06:56:06.922Z,64.62
2023-01-28T06:58:33.594Z,65.27
2023-01-28T07:01:00.196Z,65.46
2023-01-28T07:03:26.906Z,65.60
2023-01-28T07:05:53.374Z,65.49
2023-01-28T07:08:19.899Z,65.82
2023-01-28T07:10:46.516Z,65.46
2023-01-28T07:13:12.957Z,65.45
2023-01-28T07:15:39.408Z,65.00
2023-01-28T07:18:05.911Z,65.51
2023-01-28T07:20:32.438Z,65.88
2023-01-28T07:22:58.860Z,65.39
2023-01-28T07:25:25.405Z,64.76
2023-01-28T07:27:53.381Z,64.77
2023-01-28T07:30:21.227Z,64.20
2023-01-28T07:32:52.617Z,64.70
2023-01-28T07:35:19.191Z,64.97
2023-01-28T07:37:51.730Z,64.32
2023-01-28T07:40:18.451Z,64.67
2023-01-28T07:42:44.932Z,64.86
2023-01-28T07:45:11.606Z,65.03
2023-01-28T07:47:38.103Z,64.38
2023-01-28T07:50:04.839Z,64.48
2023-01-28T07:52:31.370Z,63.99
2023-01-28T07:54:57.764Z,63.86
2023-01-28T07:57:24.252Z,63.67
2023-01-28T07:59:51.181Z,63.81
2023-01-28T08:02:18.438Z,63.66
2023-01-28T08:04:46.472Z,63.31
2023-01-28T08:07:13.206Z,63.26
2023-01-28T08:09:39.761Z,63.20
2023-01-28T08:12:06.236Z,63.99
2023-01-28T08:14:32.728Z,63.42
2023-01-28T08:16:59.318Z,62.96
2023-01-28T08:19:25.936Z,63.35
2023-01-28T08:21:52.418Z,62.70
2023-01-28T08:24:18.854Z,62.31
2023-01-28T08:26:48.172Z,61.79
2023-01-28T08:29:14.666Z,62.55
2023-01-28T08:31:41.136Z,62.60
2023-01-28T08:34:07.732Z,62.41
2023-01-28T08:36:34.123Z,62.51
2023-01-28T08:39:00.582Z,63.08
2023-01-28T08:41:27.079Z,62.28
2023-01-28T08:43:53.508Z,60.98
2023-01-28T08:46:20.149Z,60.43
2023-01-28T08:48:46.778Z,60.73
2023-01-28T08:51:13.176Z,60.74
2023-01-28T08:53:39.655Z,60.40
2023-01-28T08:56:06.678Z,60.75
2023-01-28T08:58:33.351Z,59.70
2023-01-28T09:01:04.886Z,60.33
2023-01-28T09:03:31.587Z,59.79
2023-01-28T09:06:06.976Z,60.10
2023-01-28T09:08:33.454Z,60.17
2023-01-28T09:11:00.496Z,60.01
2023-01-28T09:13:28.471Z,59.16
2023-01-28T09:15:55.043Z,58.86
2023-01-28T09:18:21.867Z,59.48
2023-01-28T09:20:48.383Z,58.77
2023-01-28T09:23:14.883Z,59.95
2023-01-28T09:25:41.491Z,59.02
2023-01-28T09:28:08.133Z,59.21
2023-01-28T09:30:37.313Z,58.42
2023-01-28T09:33:04.385Z,58.61
2023-01-28T09:35:31.019Z,58.96
2023-01-28T09:37:58.737Z,58.36
2023-01-28T09:40:33.306Z,58.58
2023-01-28T09:43:04.879Z,58.26
2023-01-28T09:45:40.678Z,57.12
2023-01-28T09:48:14.208Z,56.71
2023-01-28T09:50:45.491Z,57.71
2023-01-28T09:53:29.348Z,57.65
2023-01-28T09:56:06.280Z,56.79
2023-01-28T09:58:32.942Z,56.41
2023-01-28T10:01:05.520Z,56.84
2023-01-28T10:03:47.781Z,55.89
2023-01-28T10:06:27.643Z,56.48
2023-01-28T10:09:11.311Z,55.77
2023-01-28T10:11:57.420Z,54.08
2023-01-28T10:14:38.142Z,53.12
2023-01-28T10:17:09.876Z,52.63
2023-01-28T10:19:44.051Z,52.81
2023-01-28T10:22:21.559Z,50.57
2023-01-28T10:25:03.624Z,49.33
2023-01-28T10:27:31.947Z,49.85
2023-01-28T10:30:00.338Z,48.47
2023-01-28T10:32:32.064Z,48.98
2023-01-28T10:35:04.660Z,50.16
2023-01-28T10:37:35.569Z,51.89
2023-01-28T10:40:04.073Z,51.56
2023-01-28T10:42:36.268Z,51.76
2023-01-28T10:45:23.007Z,51.79
2023-01-28T10:48:11.185Z,51.61
2023-01-28T10:50:37.622Z,52.26
2023-01-28T10:53:06.064Z,52.90
2023-01-28T10:55:57.869Z,53.55
2023-01-28T10:58:27.126Z,53.29
2023-01-28T11:00:56.899Z,51.86
2023-01-28T11:03:27.346Z,52.65
2023-01-28T11:05:55.659Z,51.37
2023-01-28T11:08:23.127Z,50.93
2023-01-28T11:10:51.047Z,50.72
2023-01-28T11:13:23.406Z,50.66
2023-01-28T11:15:52.926Z,52.21
2023-01-28T11:18:25.090Z,52.78
2023-01-28T11:20:56.765Z,51.67
2023-01-28T11:23:41.243Z,51.72
2023-01-28T11:26:15.965Z,52.36
2023-01-28T11:28:43.516Z,51.34
2023-01-28T11:31:14.435Z,51.26
2023-01-28T11:33:57.688Z,51.89
2023-01-28T11:36:31.469Z,51.47
2023-01-28T11:39:03.252Z,51.54
2023-01-28T11:41:35.625Z,51.68
2023-01-28T11:44:12.092Z,51.71
2023-01-28T11:46:52.410Z,52.09
2023-01-28T11:49:27.634Z,51.45
2023-01-28T11:52:20.321Z,51.31
2023-01-28T11:55:10.900Z,52.31
2023-01-28T11:57:49.565Z,52.62
2023-01-28T12:00:31.573Z,53.15
2023-01-28T12:03:13.235Z,54.19
2023-01-28T12:05:45.859Z,54.11
2023-01-28T12:08:25.362Z,54.90
2023-01-28T12:11:21.281Z,54.65
2023-01-28T12:14:30.042Z,54.81
2023-01-28T12:17:11.389Z,55.24
2023-01-28T12:20:05.612Z,55.64
2023-01-28T12:23:03.041Z,56.20
2023-01-28T12:26:04.383Z,55.46
2023-01-28T12:28:45.954Z,55.23
2023-01-28T12:31:12.448Z,54.30
2023-01-28T12:33:49.094Z,54.75
2023-01-28T12:36:46.906Z,55.19
2023-01-28T12:39:25.104Z,55.57
2023-01-28T12:42:00.115Z,55.43
2023-01-28T12:44:33.219Z,55.73
2023-01-28T12:47:12.357Z,57.05
2023-01-28T12:50:15.784Z,56.92
2023-01-28T12:52:49.540Z,57.48
2023-01-28T12:55:22.624Z,57.96
2023-01-28T12:57:50.989Z,58.60
2023-01-28T13:00:54.625Z,58.11
2023-01-28T13:03:38.942Z,58.21
2023-01-28T13:06:13.527Z,58.09
2023-01-28T13:08:39.990Z,58.00
2023-01-28T13:11:14.264Z,57.83
2023-01-28T13:13:42.694Z,57.44
2023-01-28T13:16:10.217Z,57.77
2023-01-28T13:18:39.690Z,58.00
2023-01-28T13:21:08.283Z,58.03
2023-01-28T13:23:42.033Z,58.25
2023-01-28T13:26:23.030Z,58.03
2023-01-28T13:28:52.256Z,58.89
2023-01-28T13:31:22.289Z,58.37
2023-01-28T13:33:55.105Z,59.01
2023-01-28T13:36:38.901Z,58.49
2023-01-28T13:39:15.982Z,58.05
2023-01-28T13:41:46.607Z,58.53
2023-01-28T13:44:20.669Z,57.21
2023-01-28T13:46:47.365Z,56.92
2023-01-28T13:49:21.374Z,56.65
2023-01-28T13:51:59.104Z,56.05
2023-01-28T13:54:28.592Z,55.84
2023-01-28T13:57:01.153Z,56.43
2023-01-28T13:59:54.903Z,57.39
2023-01-28T14:02:43.254Z,57.40
2023-01-28T14:05:25.129Z,57.07
2023-01-28T14:08:11.510Z,57.87
2023-01-28T14:11:15.451Z,57.61
2023-01-28T14:14:24.819Z,56.52
2023-01-28T14:16:56.979Z,55.69
2023-01-28T14:19:29.929Z,55.71
2023-01-28T14:21:56.689Z,55.97
2023-01-28T14:24:23.625Z,56.03
2023-01-28T14:27:01.744Z,56.40
2023-01-28T14:29:49.298Z,57.20
2023-01-28T14:32:27.057Z,58.22
2023-01-28T14:34:54.407Z,58.11
2023-01-28T14:37:24.988Z,58.65
2023-01-28T14:39:56.319Z,58.83
2023-01-28T14:42:30.035Z,58.58
2023-01-28T14:45:11.520Z,58.90
2023-01-28T14:47:56.601Z,58.57
2023-01-28T14:50:26.061Z,59.28
2023-01-28T14:53:22.160Z,59.40
2023-01-28T14:55:53.471Z,58.40
2023-01-28T14:58:25.365Z,58.59
2023-01-28T15:00:59.140Z,58.65
2023-01-28T15:03:28.094Z,58.29
2023-01-28T15:06:05.018Z,58.22
2023-01-28T15:08:32.465Z,58.16
2023-01-28T15:11:01.397Z,58.91
2023-01-28T15:13:32.569Z,58.79
2023-01-28T15:16:00.766Z,59.08
2023-01-28T15:18:48.096Z,59.43
2023-01-28T15:21:20.022Z,59.89
2023-01-28T15:24:00.059Z,60.09
2023-01-28T15:26:29.245Z,60.01
2023-01-28T15:28:56.835Z,60.67
2023-01-28T15:31:24.723Z,60.78
2023-01-28T15:34:14.664Z,61.97
2023-01-28T15:36:41.782Z,61.53
2023-01-28T15:39:20.781Z,62.24
2023-01-28T15:42:00.475Z,62.23
2023-01-28T15:44:31.310Z,62.61
2023-01-28T15:47:02.986Z,62.30
2023-01-28T15:49:36.875Z,61.45
2023-01-28T15:52:04.261Z,62.21
2023-01-28T15:54:31.547Z,62.35
2023-01-28T15:57:09.361Z,61.90
2023-01-28T15:59:35.917Z,62.07
2023-01-28T16:02:22.767Z,61.96
2023-01-28T16:05:03.849Z,61.89
2023-01-28T16:07:33.094Z,61.63
2023-01-28T16:10:03.506Z,62.17
2023-01-28T16:12:30.023Z,61.97
2023-01-28T16:15:03.086Z,61.83
2023-01-28T16:17:36.269Z,62.16
2023-01-28T16:20:07.821Z,61.55
2023-01-28T16:22:36.843Z,61.74
2023-01-28T16:25:24.213Z,61.61
2023-01-28T16:27:50.741Z,62.37
2023-01-28T16:30:17.905Z,62.31
2023-01-28T16:32:45.091Z,62.01
2023-01-28T16:35:20.126Z,62.51
2023-01-28T16:37:47.964Z,62.64
2023-01-28T16:40:19.821Z,62.83
2023-01-28T16:42:48.516Z,62.76
2023-01-28T16:45:21.539Z,62.80
2023-01-28T16:47:48.088Z,62.94
2023-01-28T16:50:15.477Z,62.89
2023-01-28T16:52:44.404Z,62.76
2023-01-28T16:55:14.289Z,63.21
2023-01-28T16:57:41.750Z,63.23
2023-01-28T17:00:17.299Z,62.97
2023-01-28T17:02:44.502Z,62.54
2023-01-28T17:05:12.064Z,62.61
2023-01-28T17:07:38.544Z,62.26
2023-01-28T17:10:05.692Z,62.49
2023-01-28T17:12:32.172Z,63.00
2023-01-28T17:14:58.766Z,62.52
2023-01-28T17:17:25.252Z,62.22
2023-01-28T17:19:51.738Z,62.45
2023-01-28T17:22:18.230Z,63.04
2023-01-28T17:24:44.701Z,62.70
2023-01-28T17:27:11.341Z,62.88
2023-01-28T17:29:37.941Z,62.52
2023-01-28T17:32:04.627Z,63.04
2023-01-28T17:34:31.455Z,62.49
2023-01-28T17:36:57.886Z,62.53
2023-01-28T17:39:24.471Z,62.87
2023-01-28T17:41:52.162Z,62.35
2023-01-28T17:44:19.465Z,62.50
2023-01-28T17:46:46.429Z,62.85
2023-01-28T17:49:13.448Z,62.67
2023-01-28T17:51:40.001Z,61.95
2023-01-28T17:54:06.806Z,62.57
2023-01-28T17:56:33.266Z,62.30
2023-01-28T17:59:06.528Z,62.46
2023-01-28T18:01:35.670Z,62.46
2023-01-28T18:04:02.266Z,62.52
2023-01-28T18:06:33.909Z,62.63
2023-01-28T18:09:00.699Z,62.24
2023-01-28T18:11:28.023Z,62.35
2023-01-28T18:13:54.503Z,62.60
2023-01-28T18:16:21.889Z,62.68
2023-01-28T18:18:49.740Z,62.49
2023-01-28T18:21:51.824Z,62.65
2023-01-28T18:24:20.463Z,62.23
2023-01-28T18:26:47.040Z,62.13
2023-01-28T18:29:17.073Z,62.63
2023-01-28T18:31:44.157Z,62.05
2023-01-28T18:34:10.599Z,61.76
2023-01-28T18:36:37.033Z,62.00
2023-01-28T18:39:03.665Z,61.93
2023-01-28T18:41:30.240Z,62.20
2023-01-28T18:43:56.816Z,61.40
2023-01-28T18:46:23.303Z,61.44
2023-01-28T18:48:49.764Z,61.38
2023-01-28T18:51:30.937Z,61.21
2023-01-28T18:54:02.260Z,61.90
2023-01-28T18:56:29.596Z,61.22
2023-01-28T18:59:01.265Z,61.49
2023-01-28T19:01:29.216Z,62.09
2023-01-28T19:03:57.132Z,61.66
2023-01-28T19:06:24.935Z,61.62
2023-01-28T19:08:56.404Z,61.22
2023-01-28T19:11:24.517Z,61.51
2023-01-28T19:13:51.606Z,61.76
2023-01-28T19:16:19.308Z,62.23
2023-01-28T19:18:52.721Z,61.70
2023-01-28T19:21:19.740Z,61.87
2023-01-28T19:23:50.168Z,62.37
2023-01-28T19:26:21.065Z,62.43
2023-01-28T19:28:49.297Z,62.44
2023-01-28T19:31:18.666Z,62.59
2023-01-28T19:33:45.706Z,62.36
2023-01-28T19:36:13.710Z,62.75
2023-01-28T19:38:40.743Z,63.36
2023-01-28T19:41:07.872Z,63.40
2023-01-28T19:43:35.107Z,63.71
2023-01-28T19:46:04.452Z,64.16
2023-01-28T19:48:32.071Z,63.97
2023-01-28T19:50:59.134Z,64.45
2023-01-28T19:53:25.698Z,64.00
2023-01-28T19:55:52.452Z,63.77
2023-01-28T19:58:19.027Z,64.12
2023-01-28T20:00:45.506Z,63.70
2023-01-28T20:03:12.823Z,63.38
2023-01-28T20:05:39.417Z,63.57
2023-01-28T20:08:05.974Z,63.65
2023-01-28T20:10:32.652Z,63.15
2023-01-28T20:12:59.092Z,63.61
2023-01-28T20:15:25.611Z,63.73
2023-01-28T20:17:52.052Z,63.68
2023-01-28T20:20:18.622Z,63.29
2023-01-28T20:22:45.038Z,62.61
2023-01-28T20:25:11.589Z,62.66
2023-01-28T20:27:38.028Z,62.69
2023-01-28T20:30:05.051Z,62.00
2023-01-28T20:32:31.564Z,62.15
2023-01-28T20:34:57.968Z,61.95
2023-01-28T20:37:24.460Z,62.00
2023-01-28T20:39:51.075Z,62.64
2023-01-28T20:42:17.533Z,61.56
2023-01-28T20:44:44.311Z,62.08
2023-01-28T20:47:14.529Z,62.42
2023-01-28T20:49:40.924Z,61.64
2023-01-28T20:52:07.457Z,61.70
2023-01-28T20:54:33.916Z,61.73
2023-01-28T20:57:00.436Z,61.84
2023-01-28T20:59:27.508Z,61.95
2023-01-28T21:01:54.085Z,61.37
2023-01-28T21:04:20.785Z,61.98
2023-01-28T21:06:47.369Z,62.15
2023-01-28T21:09:13.805Z,61.77
2023-01-28T21:11:40.464Z,62.11
2023-01-28T21:14:06.912Z,61.73
2023-01-28T21:16:33.459Z,62.14
2023-01-28T21:19:00.025Z,62.01
2023-01-28T21:21:28.318Z,62.38
2023-01-28T21:23:57.832Z,62.46
2023-01-28T21:26:24.779Z,62.08
2023-01-28T21:28:51.561Z,62.14
2023-01-28T21:31:26.316Z,62.14
2023-01-28T21:33:55.649Z,61.57
2023-01-28T21:36:23.531Z,62.19
2023-01-28T21:38:54.926Z,62.62
2023-01-28T21:41:21.706Z,61.66
2023-01-28T21:43:53.826Z,62.66
2023-01-28T21:46:22.006Z,62.12
2023-01-28T21:48:48.609Z,62.43
2023-01-28T21:51:33.928Z,62.32
2023-01-28T21:54:02.940Z,62.19
2023-01-28T21:56:29.592Z,62.69
2023-01-28T21:59:15.112Z,62.64
2023-01-28T22:01:44.506Z,62.95
2023-01-28T22:04:11.267Z,62.42
2023-01-28T22:06:37.767Z,62.30
2023-01-28T22:09:04.457Z,62.77
2023-01-28T22:11:31.184Z,62.48
2023-01-28T22:13:57.604Z,62.13
2023-01-28T22:16:24.127Z,62.66
2023-01-28T22:18:50.578Z,62.43
2023-01-28T22:21:17.168Z,61.94
2023-01-28T22:23:43.639Z,62.11
2023-01-28T22:26:10.181Z,61.72
2023-01-28T22:28:37.924Z,62.47
2023-01-28T22:31:07.400Z,62.45
2023-01-28T22:33:37.144Z,62.55
2023-01-28T22:36:09.345Z,62.89
2023-01-28T22:38:42.610Z,62.19
2023-01-28T22:41:19.867Z,62.57
2023-01-28T22:43:47.012Z,62.67
2023-01-28T22:46:13.996Z,62.75
2023-01-28T22:48:44.275Z,62.33
2023-01-28T22:51:25.804Z,62.21
2023-01-28T22:53:53.027Z,63.24
2023-01-28T22:56:22.091Z,62.84
2023-01-28T22:58:48.975Z,62.29
2023-01-28T23:01:16.005Z,62.94
2023-01-28T23:03:47.447Z,62.44
2023-01-28T23:06:16.699Z,62.45
2023-01-28T23:08:44.892Z,62.45
2023-01-28T23:11:15.358Z,62.75
2023-01-28T23:14:02.039Z,62.43
2023-01-28T23:16:48.640Z,62.19
2023-01-28T23:19:34.470Z,61.60
2023-01-28T23:22:19.859Z,61.97
2023-01-28T23:24:46.349Z,62.61
2023-01-28T23:27:12.768Z,62.29
2023-01-28T23:29:39.156Z,62.79
2023-01-28T23:32:09.750Z,62.50
2023-01-28T23:34:41.478Z,61.71
2023-01-28T23:37:09.740Z,62.01
2023-01-28T23:39:36.338Z,62.45
2023-01-28T23:42:14.557Z,61.46
2023-01-28T23:44:41.205Z,61.35
2023-01-28T23:47:07.799Z,62.05
2023-01-28T23:49:34.343Z,61.41
2023-01-28T23:52:01.527Z,61.76
2023-01-28T23:54:27.955Z,62.08
2023-01-28T23:56:54.428Z,62.07
2023-01-28T23:59:21.045Z,62.00
